NCAR-RAP Real-Time Weather Data

Output produced by METARs form (23 January 2018  15:36 UTC)
found at http://weather.rap.ucar.edu/surface/
 
RJDT 231100Z 28012KT 240V320 9999 FEW035 SCT040 00/M10 Q1020
RJDT 231000Z 27014KT 240V310 9999 FEW035 SCT040 M00/M10 Q1019
RJDT 230900Z 27016G26KT 250V310 9999 FEW030 SCT040 00/M10 Q1019
RJDT 230800Z 27015G26KT 230V290 9999 SCT035 BKN/// 01/M09 Q1019
RJDT 230700Z 27011G21KT 240V330 9999 SCT035 BKN/// 01/M10 Q1019
RJDT 230600Z 27014KT 9999 FEW030 SCT035 BKN/// 01/M08 Q1018
RJDT 230500Z VRB13G23KT 9999 FEW030 SCT035 BKN040 02/M07 Q1018
RJDT 230400Z 27015G26KT 230V320 9999 FEW025 SCT030 BKN/// 01/M06 Q1019
RJDT 230300Z 29013G23KT 240V340 9999 SCT025 BKN100 BKN/// 02/M07 Q1019
RJDT 230200Z 29013KT 240V330 9999 FEW025 SCT030 03/M05 Q1019
RJDT 230100Z 27015G28KT 240V320 9999 FEW030 SCT035 03/M05 Q1019
RJDT 230000Z 28013G23KT 210V320 9999 FEW025 SCT030 03/M04 Q1018
RJDT 222300Z 27015KT 9999 SCT030 03/M04 Q1017
RJDT 222230Z 28013KT 220V320 9999 SCT030 03/M04 Q1016
RJDT 221100Z 26007KT 190V320 9999 SCT030 08/01 Q1013
RJDT 221000Z 26005KT 220V310 9999 FEW030 07/01 Q1013
RJDT 220900Z 26004KT 210V310 9999 FEW030 06/02 Q1013
RJDT 220800Z VRB02KT 9999 FEW035 07/03 Q1013
RJDT 220700Z 30008KT 270V330 9999 FEW020 BKN060 07/02 Q1013
RJDT 220600Z 32009KT 270V340 9999 -SHRA FEW025 SCT035 BKN070 07/02 Q1013
RJDT 220500Z 34010KT 9999 -SHRA FEW010 SCT025 BKN070 08/04 Q1013
RJDT 220400Z 35009KT 320V020 9999 FEW010 BKN050 08/04 Q1013
RJDT 220300Z 33008KT 9999 -SHRA FEW007 SCT015 BKN025 06/05 Q1014
RJDT 220200Z 34006KT 7000 -SHRA FEW004 SCT010 BKN015 06/05 Q1015
RJDT 220100Z 36004KT 300V040 7000 -SHRA FEW004 SCT015 BKN040 07/06 Q1015
RJDT 220000Z 01006KT 310V050 7000 -SHRA FEW010 SCT015 BKN025 06/04 Q1016
RJDT 212300Z 01006KT 340V040 7000 -SHRA FEW009 SCT015 BKN025 06/05 Q1015
RJDT 212230Z 02006KT 8000 -SHRA FEW010 SCT025 BKN035 07/03 Q1015
RJDT 211100Z 09008KT 9999 FEW035 SCT040 BKN/// 09/M01 Q1019
RJDT 211000Z 08008KT 9999 FEW035 SCT040 BKN/// 08/M01 Q1020
RJDT 210900Z 07006KT 030V110 9999 FEW035 BKN/// 08/M01 Q1020
RJDT 210800Z 07005KT 360V110 9999 FEW035 BKN/// 09/M02 Q1020
RJDT 210700Z 04007KT 360V070 CAVOK 09/M02 Q1020
RJDT 210600Z 04007KT 350V080 CAVOK 10/M02 Q1020
RJDT 210500Z 06006KT 010V130 CAVOK 10/M04 Q1020
RJDT 210400Z 08009KT CAVOK 11/M02 Q1021